Terminal Aerodrome Forecast
Issued by NWS

Home | Current Version | Previous Version | Text Only | Print | Product List | Glossary Off
Versions: 1 2 3 4 5 6 7 8 9 10 11 12 13 14 15 16 17 18 19 20 21 22 23

287
FTUS45 KGGW 141722
TAFOLF
TAF
KOLF 141722Z 1418/1518 26006KT P6SM SCT027
     FM142100 25012KT P6SM SKC
     FM150000 26007KT P6SM FEW090 SCT200=

USA.gov is the U.S. government's official web portal to all federal, state and local government web resources and services.